createdAt,value
2023-04-20T00:00:46.711Z,3.60
2023-04-20T00:01:46.950Z,3.60
2023-04-20T00:02:47.739Z,3.60
2023-04-20T00:03:48.626Z,3.50
2023-04-20T00:04:49.353Z,3.60
2023-04-20T00:05:50.066Z,3.80
2023-04-20T00:06:50.715Z,3.70
2023-04-20T00:07:51.412Z,3.50
2023-04-20T00:08:52.121Z,3.60
2023-04-20T00:09:52.831Z,3.70
2023-04-20T00:10:53.533Z,3.70
2023-04-20T00:11:54.238Z,3.70
2023-04-20T00:12:54.939Z,3.90
2023-04-20T00:13:55.635Z,3.80
2023-04-20T00:14:56.334Z,3.60
2023-04-20T00:15:57.052Z,3.60
2023-04-20T00:16:57.810Z,3.60
2023-04-20T00:17:58.494Z,3.50
2023-04-20T00:18:59.179Z,3.80
2023-04-20T00:19:59.883Z,3.60
2023-04-20T00:21:00.660Z,3.70
2023-04-20T00:22:01.313Z,3.80
2023-04-20T00:23:02.024Z,3.70
2023-04-20T00:24:02.714Z,3.50
2023-04-20T00:25:03.415Z,3.50
2023-04-20T00:26:04.135Z,3.80
2023-04-20T00:27:04.845Z,3.60
2023-04-20T00:28:05.530Z,3.90
2023-04-20T00:29:06.240Z,3.70
2023-04-20T00:30:06.938Z,3.70
2023-04-20T00:31:07.677Z,3.50
2023-04-20T00:32:08.359Z,3.70
2023-04-20T00:33:09.068Z,3.90
2023-04-20T00:34:09.768Z,3.80
2023-04-20T00:35:10.475Z,3.70
2023-04-20T00:36:11.221Z,3.70
2023-04-20T00:37:11.887Z,3.10
2023-04-20T00:38:12.609Z,3.60
2023-04-20T00:39:13.312Z,3.50
2023-04-20T00:40:14.022Z,3.50
2023-04-20T00:41:14.736Z,3.80
2023-04-20T00:42:15.433Z,3.60
2023-04-20T00:43:16.135Z,3.80
2023-04-20T00:44:16.894Z,3.80
2023-04-20T00:45:17.596Z,3.60
2023-04-20T00:46:18.372Z,3.60
2023-04-20T00:47:19.126Z,3.90
2023-04-20T00:48:19.847Z,3.70
2023-04-20T00:49:20.549Z,3.90
2023-04-20T00:50:21.256Z,3.90
2023-04-20T00:51:22.047Z,3.60
2023-04-20T00:52:22.682Z,3.80
2023-04-20T00:53:23.390Z,3.70
2023-04-20T00:54:24.090Z,3.90
2023-04-20T00:55:24.784Z,3.60
2023-04-20T00:56:25.512Z,3.70
2023-04-20T00:57:26.195Z,3.50
2023-04-20T00:58:26.909Z,3.30
2023-04-20T00:59:27.597Z,3.90
2023-04-20T01:00:28.301Z,4.00
2023-04-20T01:01:29.078Z,3.70
2023-04-20T01:02:29.895Z,4.00
2023-04-20T01:03:30.757Z,3.40
2023-04-20T01:04:31.615Z,3.60
2023-04-20T01:05:32.340Z,3.70
2023-04-20T01:06:33.106Z,3.60
2023-04-20T01:07:33.742Z,3.80
2023-04-20T01:08:34.441Z,3.60
2023-04-20T01:09:35.150Z,3.50
2023-04-20T01:10:35.847Z,3.70
2023-04-20T01:11:36.554Z,3.70
2023-04-20T01:12:37.259Z,3.60
2023-04-20T01:13:37.963Z,3.50
2023-04-20T01:14:38.663Z,3.40
2023-04-20T01:15:39.394Z,3.90
2023-04-20T01:16:40.088Z,3.40
2023-04-20T01:17:40.841Z,3.20
2023-04-20T01:18:41.484Z,3.60
2023-04-20T01:19:42.183Z,3.40
2023-04-20T01:20:42.899Z,3.30
2023-04-20T01:21:43.722Z,3.60
2023-04-20T01:22:44.348Z,3.70
2023-04-20T01:23:45.069Z,3.40
2023-04-20T01:24:45.754Z,3.80
2023-04-20T01:25:46.452Z,3.10
2023-04-20T01:26:47.184Z,3.50
2023-04-20T01:27:47.945Z,4.00
2023-04-20T01:28:48.599Z,3.70
2023-04-20T01:29:49.297Z,3.60
2023-04-20T01:30:50.011Z,3.60
2023-04-20T01:31:50.731Z,3.80
2023-04-20T01:32:51.450Z,4.00
2023-04-20T01:33:52.127Z,3.80
2023-04-20T01:34:52.834Z,4.10
2023-04-20T01:35:53.548Z,3.70
2023-04-20T01:36:54.285Z,3.90
2023-04-20T01:37:54.950Z,4.10
2023-04-20T01:38:55.649Z,3.80
2023-04-20T01:39:56.369Z,3.90
2023-04-20T01:40:57.054Z,3.80
2023-04-20T01:41:57.763Z,3.90
2023-04-20T01:42:58.471Z,3.70
2023-04-20T01:43:59.181Z,3.40
2023-04-20T01:44:59.866Z,3.80
2023-04-20T01:46:00.566Z,3.80
2023-04-20T01:47:01.355Z,3.60
2023-04-20T01:48:02.132Z,3.40
2023-04-20T01:49:02.793Z,3.60
2023-04-20T01:50:03.508Z,4.00
2023-04-20T01:51:04.205Z,3.30
2023-04-20T01:52:04.975Z,3.40
2023-04-20T01:53:05.620Z,3.70
2023-04-20T01:54:06.315Z,3.30
2023-04-20T01:55:07.027Z,3.50
2023-04-20T01:56:07.717Z,3.70
2023-04-20T01:57:08.429Z,3.40
2023-04-20T01:58:09.130Z,3.70
2023-04-20T01:59:09.834Z,3.80
2023-04-20T02:00:10.534Z,3.90
2023-04-20T02:01:11.289Z,3.60
2023-04-20T02:02:12.033Z,3.80
2023-04-20T02:03:13.003Z,3.50
2023-04-20T02:04:13.326Z,3.90
2023-04-20T02:05:13.970Z,3.50
2023-04-20T02:06:14.678Z,3.90
2023-04-20T02:07:15.427Z,3.60
2023-04-20T02:08:16.075Z,3.40
2023-04-20T02:09:17.013Z,3.30
2023-04-20T02:10:17.449Z,3.50
2023-04-20T02:11:18.145Z,3.60
2023-04-20T02:12:18.879Z,4.10
2023-04-20T02:13:19.590Z,3.70
2023-04-20T02:14:20.261Z,3.70
2023-04-20T02:15:20.961Z,3.40
2023-04-20T02:16:21.662Z,3.60
2023-04-20T02:17:22.440Z,3.60
2023-04-20T02:18:23.141Z,3.50
2023-04-20T02:19:23.847Z,3.70
2023-04-20T02:20:24.551Z,3.70
2023-04-20T02:21:25.250Z,3.60
2023-04-20T02:22:26.022Z,3.70
2023-04-20T02:23:26.668Z,3.60
2023-04-20T02:24:27.369Z,3.40
2023-04-20T02:25:28.108Z,3.40
2023-04-20T02:26:28.775Z,3.50
2023-04-20T02:27:29.507Z,3.60
2023-04-20T02:28:30.208Z,3.50
2023-04-20T02:29:30.909Z,3.30
2023-04-20T02:30:31.629Z,3.20
2023-04-20T02:31:32.391Z,3.50
2023-04-20T02:32:33.066Z,3.30
2023-04-20T02:33:33.759Z,3.50
2023-04-20T02:34:34.458Z,3.10
2023-04-20T02:35:35.178Z,3.30
2023-04-20T02:36:35.863Z,3.30
2023-04-20T02:37:36.630Z,3.40
2023-04-20T02:38:37.263Z,3.30
2023-04-20T02:39:37.967Z,3.40
2023-04-20T02:40:38.666Z,3.30
2023-04-20T02:41:39.369Z,3.70
2023-04-20T02:42:40.094Z,3.40
2023-04-20T02:43:40.780Z,3.60
2023-04-20T02:44:41.481Z,3.60
2023-04-20T02:45:42.182Z,3.70
2023-04-20T02:46:42.962Z,3.30
2023-04-20T02:47:43.748Z,3.70
2023-04-20T02:48:44.451Z,3.60
2023-04-20T02:49:45.164Z,3.50
2023-04-20T02:50:45.900Z,3.70
2023-04-20T02:51:46.558Z,3.50
2023-04-20T02:52:47.327Z,3.50
2023-04-20T02:53:47.966Z,3.70
2023-04-20T02:54:48.671Z,3.90
2023-04-20T02:55:49.369Z,3.50
2023-04-20T02:56:50.084Z,4.00
2023-04-20T02:57:50.781Z,3.60
2023-04-20T02:58:51.492Z,3.70
2023-04-20T02:59:52.185Z,3.80
2023-04-20T03:00:52.888Z,3.70
2023-04-20T03:01:53.620Z,3.60
2023-04-20T03:02:54.378Z,3.60
2023-04-20T03:03:55.388Z,3.80
2023-04-20T03:04:55.713Z,3.80
2023-04-20T03:05:56.754Z,3.70
2023-04-20T03:06:57.029Z,3.70
2023-04-20T03:07:57.794Z,3.80
2023-04-20T03:08:58.415Z,3.90
2023-04-20T03:09:59.122Z,3.50
2023-04-20T03:10:59.814Z,3.80
2023-04-20T03:12:00.518Z,4.30
2023-04-20T03:13:01.235Z,4.00
2023-04-20T03:14:01.931Z,4.20
2023-04-20T03:15:02.631Z,4.20
2023-04-20T03:16:03.369Z,4.00
2023-04-20T03:17:04.032Z,4.40
2023-04-20T03:18:04.781Z,3.90
2023-04-20T03:19:05.459Z,4.10
2023-04-20T03:20:06.153Z,4.30
2023-04-20T03:21:06.849Z,4.30
2023-04-20T03:22:07.551Z,4.20
2023-04-20T03:23:08.382Z,4.30
2023-04-20T03:24:09.012Z,4.60
2023-04-20T03:25:09.719Z,4.30
2023-04-20T03:26:10.417Z,4.60
2023-04-20T03:27:11.120Z,5.00
2023-04-20T03:28:11.821Z,4.40
2023-04-20T03:29:12.526Z,4.60
2023-04-20T03:30:13.242Z,4.80
2023-04-20T03:31:13.931Z,4.80
2023-04-20T03:32:14.630Z,4.50
2023-04-20T03:33:15.361Z,4.50
2023-04-20T03:34:16.044Z,4.90
2023-04-20T03:35:16.761Z,5.00
2023-04-20T03:36:17.470Z,4.90
2023-04-20T03:37:18.163Z,5.00
2023-04-20T03:38:19.040Z,5.00
2023-04-20T03:39:19.840Z,4.70
2023-04-20T03:40:20.622Z,5.00
2023-04-20T03:41:21.322Z,4.90
2023-04-20T03:42:22.037Z,5.40
2023-04-20T03:43:22.749Z,5.00
2023-04-20T03:44:23.448Z,5.30
2023-04-20T03:45:24.135Z,5.20
2023-04-20T03:46:24.932Z,5.40
2023-04-20T03:47:25.723Z,5.30
2023-04-20T03:48:26.730Z,5.40
2023-04-20T03:49:26.929Z,5.60
2023-04-20T03:50:27.633Z,5.40
2023-04-20T03:51:28.349Z,5.50
2023-04-20T03:52:29.048Z,6.00
2023-04-20T03:53:29.917Z,5.80
2023-04-20T03:54:30.547Z,5.90
2023-04-20T03:55:31.249Z,5.30
2023-04-20T03:56:31.948Z,5.60
2023-04-20T03:57:32.654Z,5.50
2023-04-20T03:58:33.382Z,5.40
2023-04-20T03:59:34.072Z,5.80
2023-04-20T04:00:34.771Z,5.20
2023-04-20T04:01:35.478Z,5.00
2023-04-20T04:02:38.137Z,5.50
2023-04-20T04:03:37.428Z,5.40
2023-04-20T04:04:37.929Z,4.90
2023-04-20T04:05:38.643Z,5.10
2023-04-20T04:06:39.352Z,5.40
2023-04-20T04:07:40.050Z,5.20
2023-04-20T04:08:41.195Z,5.70
2023-04-20T04:09:41.324Z,5.30
2023-04-20T04:10:42.030Z,5.50
2023-04-20T04:11:42.728Z,5.00
2023-04-20T04:12:43.432Z,5.80
2023-04-20T04:13:44.143Z,5.20
2023-04-20T04:14:44.852Z,5.30
2023-04-20T04:15:45.548Z,5.60
2023-04-20T04:16:46.275Z,5.70
2023-04-20T04:17:46.969Z,5.90
2023-04-20T04:18:47.660Z,5.60
2023-04-20T04:19:48.360Z,6.10
2023-04-20T04:20:49.064Z,6.40
2023-04-20T04:21:49.769Z,6.00
2023-04-20T04:22:50.465Z,6.30
2023-04-20T04:23:51.230Z,6.00
2023-04-20T04:24:51.882Z,6.50
2023-04-20T04:25:52.577Z,6.50
2023-04-20T04:26:53.278Z,5.70
2023-04-20T04:27:53.981Z,7.20
2023-04-20T04:28:54.692Z,7.50
2023-04-20T04:29:55.394Z,7.50
2023-04-20T04:30:56.098Z,7.90
2023-04-20T04:31:56.793Z,8.30
2023-04-20T04:32:57.597Z,7.20
2023-04-20T04:33:58.244Z,7.70
2023-04-20T04:34:58.946Z,7.50
2023-04-20T04:35:59.694Z,7.20
2023-04-20T04:37:00.352Z,7.40
2023-04-20T04:38:01.070Z,7.30
2023-04-20T04:39:01.994Z,7.30
2023-04-20T04:40:03.372Z,7.30
2023-04-20T04:41:03.505Z,6.40
2023-04-20T04:42:04.939Z,6.00
2023-04-20T04:43:05.125Z,6.00
2023-04-20T04:44:05.838Z,5.60
2023-04-20T04:45:06.533Z,5.90
2023-04-20T04:46:07.255Z,5.60
2023-04-20T04:47:07.937Z,5.90
2023-04-20T04:48:09.109Z,5.70
2023-04-20T04:49:09.310Z,5.50
2023-04-20T04:50:10.049Z,5.50
2023-04-20T04:51:10.715Z,5.50
2023-04-20T04:52:11.423Z,5.40
2023-04-20T04:53:12.125Z,5.00
2023-04-20T04:54:13.919Z,5.40
2023-04-20T04:55:15.765Z,4.70
2023-04-20T04:56:14.104Z,4.90
2023-04-20T04:57:14.995Z,5.00
2023-04-20T04:58:16.179Z,4.70
2023-04-20T04:59:16.885Z,4.30
2023-04-20T05:00:17.120Z,4.90
2023-04-20T05:01:17.844Z,4.90
2023-04-20T05:02:18.652Z,4.90
2023-04-20T05:03:19.491Z,4.90
2023-04-20T05:04:20.396Z,5.10
2023-04-20T05:05:21.079Z,4.60
2023-04-20T05:06:21.792Z,4.80
2023-04-20T05:07:22.511Z,4.50
2023-04-20T05:08:23.197Z,4.70
2023-04-20T05:09:23.957Z,4.60
2023-04-20T05:10:24.583Z,4.70
2023-04-20T05:11:25.292Z,4.50
2023-04-20T05:12:25.992Z,4.70
2023-04-20T05:13:26.694Z,4.50
2023-04-20T05:14:27.420Z,4.20
2023-04-20T05:15:28.108Z,4.20
2023-04-20T05:16:28.838Z,4.60
2023-04-20T05:17:29.570Z,4.40
2023-04-20T05:18:30.219Z,4.30
2023-04-20T05:19:30.924Z,4.30
2023-04-20T05:20:31.628Z,4.60
2023-04-20T05:21:32.326Z,4.50
2023-04-20T05:22:33.036Z,4.50
2023-04-20T05:23:33.729Z,4.70
2023-04-20T05:24:34.562Z,4.50
2023-04-20T05:25:35.217Z,5.20
2023-04-20T05:26:35.916Z,6.50
2023-04-20T05:27:36.617Z,6.70
2023-04-20T05:28:37.333Z,9.10
2023-04-20T05:29:38.033Z,9.40
2023-04-20T05:30:38.739Z,10.90
2023-04-20T05:31:39.485Z,10.90
2023-04-20T05:32:40.183Z,15.90
2023-04-20T05:33:41.350Z,15.00
2023-04-20T05:34:41.574Z,17.40
2023-04-20T05:35:42.280Z,15.70
2023-04-20T05:36:42.986Z,16.90
2023-04-20T05:37:43.684Z,16.50
2023-04-20T05:38:44.386Z,17.10
2023-04-20T05:39:45.242Z,26.10
2023-04-20T05:40:46.348Z,26.90
2023-04-20T05:41:46.504Z,30.90
2023-04-20T05:42:47.215Z,28.90
2023-04-20T05:43:47.913Z,28.70
2023-04-20T05:44:48.644Z,31.30
2023-04-20T05:45:49.480Z,32.60
2023-04-20T05:46:50.198Z,30.20
2023-04-20T05:47:50.980Z,34.00
2023-04-20T05:48:51.637Z,28.50
2023-04-20T05:49:52.353Z,34.10
2023-04-20T05:50:53.052Z,32.60
2023-04-20T05:51:53.768Z,31.80
2023-04-20T05:52:54.458Z,32.70
2023-04-20T05:53:55.163Z,41.00
2023-04-20T05:54:56.038Z,36.10
2023-04-20T05:55:56.664Z,38.00
2023-04-20T05:56:57.371Z,37.90
2023-04-20T05:57:58.079Z,38.50
2023-04-20T05:58:58.766Z,38.30
2023-04-20T05:59:59.496Z,39.00
2023-04-20T06:01:00.198Z,36.90
2023-04-20T06:02:01.006Z,39.20
2023-04-20T06:03:02.098Z,36.10
2023-04-20T06:04:02.598Z,37.50
2023-04-20T06:05:03.031Z,39.30
2023-04-20T06:06:03.734Z,31.90
2023-04-20T06:07:04.438Z,40.40
2023-04-20T06:08:05.142Z,39.60
2023-04-20T06:09:05.849Z,40.60
2023-04-20T06:10:06.630Z,41.60
2023-04-20T06:11:07.305Z,44.60
2023-04-20T06:12:08.007Z,43.30
2023-04-20T06:13:08.727Z,43.20
2023-04-20T06:14:09.416Z,41.40
2023-04-20T06:15:10.142Z,40.20
2023-04-20T06:16:10.994Z,45.20
2023-04-20T06:17:11.757Z,39.40
2023-04-20T06:18:12.491Z,39.90
2023-04-20T06:19:13.154Z,41.60
2023-04-20T06:20:13.862Z,38.30
2023-04-20T06:21:14.579Z,39.60
2023-04-20T06:22:15.281Z,29.40
2023-04-20T06:23:15.987Z,30.30
2023-04-20T06:24:16.692Z,29.30
2023-04-20T06:25:17.541Z,33.60
2023-04-20T06:26:18.176Z,34.40
2023-04-20T06:27:18.871Z,38.10
2023-04-20T06:28:19.576Z,37.60
2023-04-20T06:29:20.284Z,34.20
2023-04-20T06:30:21.042Z,39.40
2023-04-20T06:31:21.811Z,37.80
2023-04-20T06:32:22.533Z,36.80
2023-04-20T06:33:23.210Z,37.60
2023-04-20T06:34:23.899Z,36.30
2023-04-20T06:35:24.621Z,33.70
2023-04-20T06:36:25.310Z,34.70
2023-04-20T06:37:26.010Z,37.60
2023-04-20T06:38:26.737Z,38.10
2023-04-20T06:39:27.423Z,31.90
2023-04-20T06:40:28.328Z,33.40
2023-04-20T06:41:29.013Z,33.50
2023-04-20T06:42:29.722Z,32.30
2023-04-20T06:43:30.432Z,27.00
2023-04-20T06:44:31.152Z,31.50
2023-04-20T06:45:33.616Z,28.00
2023-04-20T06:46:32.825Z,34.60
2023-04-20T06:47:33.595Z,37.20
2023-04-20T06:48:34.366Z,37.20
2023-04-20T06:49:35.052Z,34.00
2023-04-20T06:50:35.767Z,38.50
2023-04-20T06:51:36.478Z,32.90
2023-04-20T06:52:37.176Z,33.40
2023-04-20T06:53:37.879Z,32.50
2023-04-20T06:54:38.597Z,37.20
2023-04-20T06:55:39.336Z,37.40
2023-04-20T06:56:39.998Z,34.50
2023-04-20T06:57:40.736Z,33.90
2023-04-20T06:58:41.400Z,32.40
2023-04-20T06:59:42.122Z,31.50
2023-04-20T07:00:42.855Z,31.20
2023-04-20T07:01:43.579Z,27.60
2023-04-20T07:02:44.322Z,26.80
2023-04-20T07:03:45.152Z,27.80
2023-04-20T07:04:45.916Z,28.60
2023-04-20T07:05:46.748Z,28.50
2023-04-20T07:06:47.490Z,28.80
2023-04-20T07:07:48.232Z,26.90
2023-04-20T07:08:49.340Z,24.70
2023-04-20T07:09:49.542Z,26.70
2023-04-20T07:10:50.392Z,22.70
2023-04-20T07:11:51.023Z,24.40
2023-04-20T07:12:51.761Z,23.70
2023-04-20T07:13:52.451Z,24.00
2023-04-20T07:14:53.169Z,24.80
2023-04-20T07:15:53.922Z,20.80
2023-04-20T07:16:54.669Z,26.60
2023-04-20T07:17:55.425Z,19.80
2023-04-20T07:18:56.228Z,18.80
2023-04-20T07:19:56.922Z,22.10
2023-04-20T07:20:57.643Z,23.40
2023-04-20T07:21:58.346Z,24.20
2023-04-20T07:22:59.052Z,23.30
2023-04-20T07:23:59.759Z,19.40
2023-04-20T07:25:00.457Z,16.90
2023-04-20T07:26:01.263Z,19.00
2023-04-20T07:27:01.901Z,21.00
2023-04-20T07:28:02.598Z,20.40
2023-04-20T07:29:03.298Z,23.60
2023-04-20T07:30:03.984Z,21.20
2023-04-20T07:31:04.698Z,20.90
2023-04-20T07:32:05.450Z,23.70
2023-04-20T07:33:06.124Z,23.60
2023-04-20T07:34:06.804Z,21.20
2023-04-20T07:35:07.512Z,23.70
2023-04-20T07:36:08.225Z,24.00
2023-04-20T07:37:08.925Z,22.10
2023-04-20T07:38:09.629Z,22.60
2023-04-20T07:39:10.340Z,20.80
2023-04-20T07:40:11.078Z,21.00
2023-04-20T07:41:11.803Z,22.60
2023-04-20T07:42:12.485Z,20.20
2023-04-20T07:43:13.182Z,20.20
2023-04-20T07:44:13.892Z,19.80
2023-04-20T07:45:14.601Z,19.80
2023-04-20T07:46:15.845Z,19.70
2023-04-20T07:47:16.025Z,17.50
2023-04-20T07:48:16.746Z,18.60
2023-04-20T07:49:17.694Z,18.80
2023-04-20T07:50:18.004Z,19.00
2023-04-20T07:51:18.758Z,19.40
2023-04-20T07:52:19.475Z,19.20
2023-04-20T07:53:20.181Z,19.30
2023-04-20T07:54:20.886Z,19.60
2023-04-20T07:55:21.585Z,18.70
2023-04-20T07:56:22.795Z,16.80
2023-04-20T07:57:22.934Z,15.70
2023-04-20T07:58:23.621Z,17.50
2023-04-20T07:59:24.326Z,19.40
2023-04-20T08:00:25.086Z,22.70
2023-04-20T08:01:25.775Z,20.80
2023-04-20T08:02:26.604Z,18.10
2023-04-20T08:03:27.612Z,21.20
2023-04-20T08:04:28.226Z,20.30
2023-04-20T08:05:28.533Z,22.20
2023-04-20T08:06:29.261Z,23.80
2023-04-20T08:07:29.962Z,20.90
2023-04-20T08:08:30.669Z,21.80
2023-04-20T08:09:31.382Z,19.60
2023-04-20T08:10:32.082Z,20.90
2023-04-20T08:11:34.675Z,20.80
2023-04-20T08:12:33.312Z,21.90
2023-04-20T08:13:34.006Z,23.10
2023-04-20T08:14:34.721Z,24.90
2023-04-20T08:15:35.462Z,21.40
2023-04-20T08:16:36.200Z,20.50
2023-04-20T08:17:36.911Z,17.40
2023-04-20T08:18:37.569Z,22.60
2023-04-20T08:19:38.493Z,26.70
2023-04-20T08:20:39.174Z,31.00
2023-04-20T08:21:39.910Z,36.10
2023-04-20T08:22:40.648Z,32.80
2023-04-20T08:23:41.361Z,33.10
2023-04-20T08:24:42.074Z,32.00
2023-04-20T08:25:42.782Z,28.60
2023-04-20T08:26:43.564Z,27.20
2023-04-20T08:27:44.239Z,26.80
2023-04-20T08:28:44.931Z,37.50
2023-04-20T08:29:45.638Z,34.90
2023-04-20T08:30:46.339Z,31.90
2023-04-20T08:31:49.081Z,35.50
2023-04-20T08:32:47.587Z,36.70
2023-04-20T08:33:48.273Z,36.50
2023-04-20T08:34:49.009Z,36.50
2023-04-20T08:35:49.709Z,36.30
2023-04-20T08:36:50.749Z,40.70
2023-04-20T08:37:50.959Z,43.10
2023-04-20T08:38:51.662Z,39.50
2023-04-20T08:39:52.395Z,40.40
2023-04-20T08:40:53.093Z,41.30
2023-04-20T08:41:53.983Z,35.50
2023-04-20T08:42:54.659Z,37.00
2023-04-20T08:43:55.363Z,37.50
2023-04-20T08:44:56.066Z,34.70
2023-04-20T08:45:56.772Z,30.20
2023-04-20T08:46:57.993Z,28.30
2023-04-20T08:47:58.298Z,27.90
2023-04-20T08:48:58.969Z,27.60
2023-04-20T08:49:59.690Z,24.60
2023-04-20T08:51:00.381Z,23.90
2023-04-20T08:52:01.276Z,24.90
2023-04-20T08:53:01.968Z,25.10
2023-04-20T08:54:02.670Z,23.40
2023-04-20T08:55:03.449Z,18.70
2023-04-20T08:56:04.107Z,16.90
2023-04-20T08:57:05.309Z,16.40
2023-04-20T08:58:05.460Z,13.70
2023-04-20T08:59:06.187Z,13.00
2023-04-20T09:00:06.871Z,13.90
2023-04-20T09:01:07.577Z,16.60
2023-04-20T09:02:08.855Z,15.50
2023-04-20T09:03:09.225Z,16.60
2023-04-20T09:04:09.871Z,14.90
2023-04-20T09:05:10.217Z,13.50
2023-04-20T09:06:10.894Z,13.40
2023-04-20T09:07:11.756Z,11.30
2023-04-20T09:08:12.465Z,10.50
2023-04-20T09:09:13.187Z,12.30
2023-04-20T09:10:13.885Z,14.20
2023-04-20T09:11:14.602Z,12.50
2023-04-20T09:12:15.437Z,14.00
2023-04-20T09:13:16.064Z,13.70
2023-04-20T09:14:17.314Z,12.80
2023-04-20T09:15:17.625Z,14.90
2023-04-20T09:16:18.372Z,14.80
2023-04-20T09:17:19.042Z,15.30
2023-04-20T09:18:19.741Z,14.80
2023-04-20T09:19:20.447Z,14.90
2023-04-20T09:20:21.197Z,12.70
2023-04-20T09:21:21.868Z,12.30
2023-04-20T09:22:22.570Z,13.00
2023-04-20T09:23:23.294Z,13.70
2023-04-20T09:24:23.998Z,14.10
2023-04-20T09:25:24.837Z,19.10
2023-04-20T09:26:25.482Z,18.30
2023-04-20T09:27:26.349Z,15.10
2023-04-20T09:28:26.977Z,15.80
2023-04-20T09:29:27.684Z,12.50
2023-04-20T09:30:28.389Z,15.30
2023-04-20T09:31:29.153Z,17.20
2023-04-20T09:32:30.298Z,15.80
2023-04-20T09:33:30.464Z,14.10
2023-04-20T09:34:31.174Z,14.50
2023-04-20T09:35:31.893Z,19.30
2023-04-20T09:36:32.602Z,21.60
2023-04-20T09:37:33.757Z,29.00
2023-04-20T09:38:33.977Z,32.00
2023-04-20T09:39:34.680Z,26.40
2023-04-20T09:40:35.406Z,25.00
2023-04-20T09:41:36.114Z,21.80
2023-04-20T09:42:37.342Z,21.60
2023-04-20T09:43:37.503Z,26.20
2023-04-20T09:44:38.203Z,29.20
2023-04-20T09:45:38.953Z,28.30
2023-04-20T09:46:39.646Z,19.50
2023-04-20T09:47:40.796Z,23.90
2023-04-20T09:48:41.014Z,25.20
2023-04-20T09:49:41.686Z,28.40
2023-04-20T09:50:49.643Z,30.30
2023-04-20T09:51:44.002Z,33.60
2023-04-20T09:52:43.756Z,34.70
2023-04-20T09:53:44.468Z,32.90
2023-04-20T09:54:45.197Z,33.90
2023-04-20T09:55:45.886Z,36.50
2023-04-20T09:56:46.618Z,37.60
2023-04-20T09:57:47.388Z,41.00
2023-04-20T09:58:48.035Z,38.50
2023-04-20T09:59:49.648Z,33.00
2023-04-20T10:00:49.483Z,31.10
2023-04-20T10:01:50.225Z,34.20
2023-04-20T10:02:51.087Z,35.70
2023-04-20T10:03:51.974Z,37.30
2023-04-20T10:04:52.745Z,35.70
2023-04-20T10:05:53.637Z,36.00
2023-04-20T10:06:54.526Z,26.80
2023-04-20T10:07:55.267Z,25.20
2023-04-20T10:08:55.983Z,25.80
2023-04-20T10:09:56.693Z,24.00
2023-04-20T10:10:57.395Z,21.90
2023-04-20T10:11:59.585Z,20.40
2023-04-20T10:12:58.897Z,17.90
2023-04-20T10:13:59.529Z,16.50
2023-04-20T10:15:00.229Z,16.20
2023-04-20T10:16:00.930Z,15.20
2023-04-20T10:17:01.831Z,15.60
2023-04-20T10:18:02.767Z,13.60
2023-04-20T10:19:03.518Z,13.80
2023-04-20T10:20:04.202Z,12.50
2023-04-20T10:21:04.912Z,11.00
2023-04-20T10:22:05.612Z,14.10
2023-04-20T10:23:06.778Z,14.10
2023-04-20T10:24:06.984Z,13.30
2023-04-20T10:25:07.687Z,14.00
2023-04-20T10:26:08.416Z,13.50
2023-04-20T10:27:09.106Z,17.70
2023-04-20T10:28:10.318Z,19.40
2023-04-20T10:29:10.555Z,16.90
2023-04-20T10:30:11.297Z,15.50
2023-04-20T10:31:11.990Z,15.70
2023-04-20T10:32:12.657Z,13.30
2023-04-20T10:33:13.834Z,12.70
2023-04-20T10:34:13.997Z,12.20
2023-04-20T10:35:14.728Z,10.70
2023-04-20T10:36:15.428Z,12.50
2023-04-20T10:37:16.135Z,12.30
2023-04-20T10:38:17.282Z,13.00
2023-04-20T10:39:19.527Z,11.10
2023-04-20T10:40:18.092Z,12.40
2023-04-20T10:41:18.754Z,10.70
2023-04-20T10:42:19.470Z,12.30
2023-04-20T10:43:20.410Z,10.80
2023-04-20T10:44:21.052Z,12.10
2023-04-20T10:45:21.767Z,15.50
2023-04-20T10:46:22.495Z,15.50
2023-04-20T10:47:23.211Z,12.80
2023-04-20T10:48:24.302Z,13.70
2023-04-20T10:49:24.497Z,11.60
2023-04-20T10:50:25.210Z,9.80
2023-04-20T10:51:25.916Z,10.90
2023-04-20T10:52:26.626Z,10.10
2023-04-20T10:53:27.509Z,10.20
2023-04-20T10:54:28.766Z,11.90
2023-04-20T10:55:29.033Z,11.20
2023-04-20T10:56:30.161Z,11.10
2023-04-20T10:57:30.379Z,12.50
2023-04-20T10:58:31.277Z,11.50
2023-04-20T10:59:31.899Z,8.90
2023-04-20T11:00:33.306Z,10.80
2023-04-20T11:01:33.558Z,10.40
2023-04-20T11:02:34.319Z,14.50
2023-04-20T11:03:35.247Z,16.40
2023-04-20T11:04:35.970Z,8.70
2023-04-20T11:05:36.657Z,7.60
2023-04-20T11:06:37.356Z,7.10
2023-04-20T11:07:38.057Z,5.90
2023-04-20T11:08:38.768Z,6.30
2023-04-20T11:09:39.468Z,5.80
2023-04-20T11:10:40.179Z,5.50
2023-04-20T11:11:40.885Z,5.60
2023-04-20T11:12:41.607Z,5.20
2023-04-20T11:13:42.377Z,5.40
2023-04-20T11:14:43.015Z,6.40
2023-04-20T11:15:43.736Z,5.90
2023-04-20T11:16:51.681Z,5.70
2023-04-20T11:17:46.043Z,6.10
2023-04-20T11:18:45.731Z,5.50
2023-04-20T11:19:46.446Z,4.70
2023-04-20T11:20:47.328Z,5.10
2023-04-20T11:21:48.032Z,5.00
2023-04-20T11:22:48.739Z,5.00
2023-04-20T11:23:49.790Z,4.90
2023-04-20T11:24:49.988Z,5.00
2023-04-20T11:25:50.700Z,4.50
2023-04-20T11:26:51.413Z,4.40
2023-04-20T11:27:52.111Z,4.50
2023-04-20T11:28:55.473Z,4.40
2023-04-20T11:29:53.722Z,4.60
2023-04-20T11:30:54.422Z,4.50
2023-04-20T11:31:55.201Z,4.50
2023-04-20T11:32:56.003Z,4.40
2023-04-20T11:33:56.770Z,4.60
2023-04-20T11:35:05.914Z,4.10
2023-04-20T11:35:59.089Z,4.30
2023-04-20T11:36:58.804Z,4.30
2023-04-20T11:37:59.537Z,5.00
2023-04-20T11:39:00.269Z,4.60
2023-04-20T11:40:00.984Z,4.60
2023-04-20T11:41:01.684Z,5.20
2023-04-20T11:42:02.390Z,4.90
2023-04-20T11:43:03.103Z,4.50
2023-04-20T11:44:03.893Z,4.60
2023-04-20T11:45:04.524Z,4.80
2023-04-20T11:46:05.294Z,4.60
2023-04-20T11:47:05.988Z,4.60
2023-04-20T11:48:06.716Z,5.20
2023-04-20T11:49:07.790Z,5.10
2023-04-20T11:50:08.011Z,5.00
2023-04-20T11:51:08.716Z,4.90
2023-04-20T11:52:09.427Z,5.40
2023-04-20T11:53:10.159Z,5.80
2023-04-20T11:54:11.277Z,5.30
2023-04-20T11:55:11.505Z,5.10
2023-04-20T11:56:12.206Z,5.10
2023-04-20T11:57:12.909Z,5.10
2023-04-20T11:58:13.646Z,5.10
2023-04-20T11:59:14.508Z,5.40
2023-04-20T12:00:15.288Z,5.20
2023-04-20T12:01:15.949Z,5.30
2023-04-20T12:02:16.870Z,5.40
2023-04-20T12:03:17.768Z,5.40
2023-04-20T12:04:19.243Z,5.20
2023-04-20T12:05:19.224Z,5.20
2023-04-20T12:06:19.901Z,5.30
2023-04-20T12:07:20.604Z,5.20
2023-04-20T12:08:21.310Z,4.90
2023-04-20T12:09:22.222Z,5.70
2023-04-20T12:10:22.916Z,5.30
2023-04-20T12:11:23.665Z,4.80
2023-04-20T12:12:24.334Z,5.00
2023-04-20T12:13:25.035Z,4.90
2023-04-20T12:14:25.848Z,5.10
2023-04-20T12:15:26.633Z,5.30
2023-04-20T12:16:27.402Z,4.90
2023-04-20T12:17:28.151Z,4.50
2023-04-20T12:18:28.836Z,4.80
2023-04-20T12:19:29.550Z,4.80
2023-04-20T12:20:30.278Z,4.80
2023-04-20T12:21:30.959Z,4.70
2023-04-20T12:22:31.670Z,4.90
2023-04-20T12:23:32.390Z,4.90
2023-04-20T12:24:33.101Z,4.70
2023-04-20T12:25:33.808Z,4.70
2023-04-20T12:26:38.516Z,4.80
2023-04-20T12:27:35.147Z,4.70
2023-04-20T12:28:35.834Z,5.30
2023-04-20T12:29:36.770Z,4.60
2023-04-20T12:30:37.401Z,4.90
2023-04-20T12:31:38.150Z,4.70
2023-04-20T12:32:38.867Z,4.90
2023-04-20T12:33:39.575Z,4.70
2023-04-20T12:34:40.791Z,4.80
2023-04-20T12:35:41.006Z,4.90
2023-04-20T12:36:41.693Z,5.20
2023-04-20T12:37:42.433Z,4.80
2023-04-20T12:38:43.111Z,5.10
2023-04-20T12:39:43.837Z,4.90
2023-04-20T12:40:44.670Z,4.90
2023-04-20T12:41:45.297Z,5.10
2023-04-20T12:42:45.998Z,5.20
2023-04-20T12:43:46.712Z,5.40
2023-04-20T12:44:47.859Z,5.30
2023-04-20T12:45:48.029Z,5.40
2023-04-20T12:46:48.739Z,5.60
2023-04-20T12:47:49.458Z,5.60
2023-04-20T12:48:50.152Z,5.20
2023-04-20T12:49:51.294Z,5.80
2023-04-20T12:50:51.490Z,5.90
2023-04-20T12:51:52.200Z,5.90
2023-04-20T12:52:52.924Z,6.20
2023-04-20T12:53:53.625Z,5.90
2023-04-20T12:54:54.828Z,6.00
2023-04-20T12:56:00.810Z,6.30
2023-04-20T12:56:56.639Z,6.30
2023-04-20T12:57:56.331Z,6.20
2023-04-20T12:58:57.037Z,6.00
2023-04-20T12:59:57.825Z,6.60
2023-04-20T13:00:58.519Z,6.30
2023-04-20T13:01:59.291Z,5.90
2023-04-20T13:03:00.122Z,6.30
2023-04-20T13:04:01.010Z,6.60
2023-04-20T13:05:01.845Z,6.10
2023-04-20T13:06:02.501Z,6.00
2023-04-20T13:07:03.230Z,5.90
2023-04-20T13:08:03.918Z,6.10
2023-04-20T13:09:04.648Z,6.00
2023-04-20T13:10:05.801Z,6.40
2023-04-20T13:11:06.021Z,6.30
2023-04-20T13:12:06.721Z,6.30
2023-04-20T13:13:08.065Z,6.20
2023-04-20T13:14:08.247Z,6.00
2023-04-20T13:15:09.476Z,6.70
2023-04-20T13:16:09.694Z,6.80
2023-04-20T13:17:10.364Z,6.70